TXKF/BDA METAR and TAF weather

Enter ICAO airport designator
Station Type Date Time Source
TXKF METAR 2020/07/14 23:55 UTC NOAA

TXKF 142355Z 20010KT 9999 FEW011 SCT110 BKN180 BKN250 25/22 Q1020


Station Type Date Time Source
TXKF Decoded METAR 2020/07/14 23:55 UTC NOAA

Bermuda, Bermuda (TXKF) 32-22N 064-41W
Jul 14, 2020 - 07:55 PM EDT / 2020.07.14 2355 UTC
Wind: from the SSW (200 degrees) at 12 MPH (10 KT):0
Visibility: greater than 7 mile(s):0
Sky conditions: mostly cloudy
Temperature: 77 F (25 C)
Dew Point: 71 F (22 C)
Relative Humidity: 83%
Pressure (altimeter): 30.12 in. Hg (1020 hPa)
ob: TXKF 142355Z 20010KT 9999 FEW011 SCT110 BKN180 BKN250 25/22 Q1020
cycle: 0

Station Type Date Time Source
TXKF TAF 2020/07/14 18:55 UTC NOAA

TAF TXKF 141739Z 1418/1518 20012KT 9999 VCSH FEW020 SCT050 BKN300
TEMPO 1418/1424 27012KT 9000 -SHRA BKN020
TEMPO 1500/1515 27012KT 4800 SHRA VCTS BKN014

Example: see airport list